sensor_id;sensor_type;location;lat;lon;timestamp;pressure;altitude;pressure_sealevel;temperature;humidity
75420;BME280;63998;52.488;13.428;2023-07-08T00:00:41;101576.44;;;21.75;41.68
75420;BME280;63998;52.488;13.428;2023-07-08T00:03:07;101581.81;;;21.72;41.82
75420;BME280;63998;52.488;13.428;2023-07-08T00:05:32;101579.25;;;21.69;41.68
75420;BME280;63998;52.488;13.428;2023-07-08T00:07:57;101580.25;;;21.65;41.97
75420;BME280;63998;52.488;13.428;2023-07-08T00:10:25;101585.59;;;21.64;41.84
75420;BME280;63998;52.488;13.428;2023-07-08T00:12:56;101586.56;;;21.61;42.12
75420;BME280;63998;52.488;13.428;2023-07-08T00:15:25;101585.78;;;21.58;42.35
75420;BME280;63998;52.488;13.428;2023-07-08T00:17:52;101573.59;;;21.52;42.49
75420;BME280;63998;52.488;13.428;2023-07-08T00:20:20;101577.19;;;21.51;42.51
75420;BME280;63998;52.488;13.428;2023-07-08T00:22:47;101577.28;;;21.48;42.46
75420;BME280;63998;52.488;13.428;2023-07-08T00:25:18;101581.03;;;21.39;42.40
75420;BME280;63998;52.488;13.428;2023-07-08T00:27:47;101571.53;;;21.34;42.79
75420;BME280;63998;52.488;13.428;2023-07-08T00:30:29;101574.25;;;21.31;43.02
75420;BME280;63998;52.488;13.428;2023-07-08T00:32:55;101572.59;;;21.27;42.97
75420;BME280;63998;52.488;13.428;2023-07-08T00:35:32;101574.53;;;21.22;43.37
75420;BME280;63998;52.488;13.428;2023-07-08T00:37:58;101567.63;;;21.14;43.29
75420;BME280;63998;52.488;13.428;2023-07-08T00:40:28;101576.50;;;21.13;43.31
75420;BME280;63998;52.488;13.428;2023-07-08T00:42:56;101573.03;;;21.11;43.53
75420;BME280;63998;52.488;13.428;2023-07-08T00:48:07;101581.88;;;21.10;43.72
75420;BME280;63998;52.488;13.428;2023-07-08T00:50:34;101572.34;;;21.03;43.71
75420;BME280;63998;52.488;13.428;2023-07-08T00:55:46;101571.97;;;20.86;44.17
75420;BME280;63998;52.488;13.428;2023-07-08T00:58:12;101572.22;;;20.77;44.40
75420;BME280;63998;52.488;13.428;2023-07-08T01:00:37;101573.25;;;20.71;44.68
75420;BME280;63998;52.488;13.428;2023-07-08T01:03:03;101568.91;;;20.69;44.79
75420;BME280;63998;52.488;13.428;2023-07-08T01:05:29;101568.19;;;20.64;45.06
75420;BME280;63998;52.488;13.428;2023-07-08T01:07:58;101575.31;;;20.60;45.23
75420;BME280;63998;52.488;13.428;2023-07-08T01:10:30;101579.72;;;20.60;45.16
75420;BME280;63998;52.488;13.428;2023-07-08T01:12:59;101578.88;;;20.58;45.04
75420;BME280;63998;52.488;13.428;2023-07-08T01:15:31;101577.97;;;20.59;45.16
75420;BME280;63998;52.488;13.428;2023-07-08T01:17:58;101577.91;;;20.62;44.92
75420;BME280;63998;52.488;13.428;2023-07-08T01:20:24;101562.84;;;20.65;44.70
75420;BME280;63998;52.488;13.428;2023-07-08T01:22:49;101558.28;;;20.72;44.49
75420;BME280;63998;52.488;13.428;2023-07-08T01:25:15;101568.84;;;20.72;44.48
75420;BME280;63998;52.488;13.428;2023-07-08T01:27:45;101554.72;;;20.73;44.38
75420;BME280;63998;52.488;13.428;2023-07-08T01:30:13;101559.19;;;20.71;44.19
75420;BME280;63998;52.488;13.428;2023-07-08T01:32:45;101554.81;;;20.70;44.13
75420;BME280;63998;52.488;13.428;2023-07-08T01:35:12;101553.13;;;20.66;44.19
75420;BME280;63998;52.488;13.428;2023-07-08T01:37:41;101560.16;;;20.67;44.31
75420;BME280;63998;52.488;13.428;2023-07-08T01:40:37;101549.78;;;20.61;44.42
75420;BME280;63998;52.488;13.428;2023-07-08T01:43:05;101551.69;;;20.54;44.31
75420;BME280;63998;52.488;13.428;2023-07-08T01:45:36;101560.72;;;20.46;44.70
75420;BME280;63998;52.488;13.428;2023-07-08T01:48:17;101553.78;;;20.41;44.70
75420;BME280;63998;52.488;13.428;2023-07-08T01:51:09;101552.06;;;20.40;44.94
75420;BME280;63998;52.488;13.428;2023-07-08T01:53:37;101551.28;;;20.37;44.75
75420;BME280;63998;52.488;13.428;2023-07-08T01:56:03;101545.13;;;20.36;44.87
75420;BME280;63998;52.488;13.428;2023-07-08T01:58:29;101546.78;;;20.40;44.63
75420;BME280;63998;52.488;13.428;2023-07-08T02:00:55;101540.72;;;20.37;44.68
75420;BME280;63998;52.488;13.428;2023-07-08T02:03:21;101538.16;;;20.32;44.95
75420;BME280;63998;52.488;13.428;2023-07-08T02:05:46;101542.56;;;20.32;45.05
75420;BME280;63998;52.488;13.428;2023-07-08T02:08:12;101540.88;;;20.29;44.84
75420;BME280;63998;52.488;13.428;2023-07-08T02:10:38;101541.69;;;20.31;44.99
75420;BME280;63998;52.488;13.428;2023-07-08T02:13:04;101541.78;;;20.28;45.04
75420;BME280;63998;52.488;13.428;2023-07-08T02:15:30;101550.75;;;20.21;44.83
75420;BME280;63998;52.488;13.428;2023-07-08T02:17:55;101543.97;;;20.11;45.23
75420;BME280;63998;52.488;13.428;2023-07-08T02:20:21;101540.56;;;20.06;45.22
75420;BME280;63998;52.488;13.428;2023-07-08T02:22:46;101542.53;;;19.98;45.64
75420;BME280;63998;52.488;13.428;2023-07-08T02:25:12;101535.50;;;19.98;45.71
75420;BME280;63998;52.488;13.428;2023-07-08T02:27:38;101539.00;;;19.99;45.63
75420;BME280;63998;52.488;13.428;2023-07-08T02:30:04;101546.09;;;19.97;45.92
75420;BME280;63998;52.488;13.428;2023-07-08T02:32:29;101546.03;;;20.00;45.83
75420;BME280;63998;52.488;13.428;2023-07-08T02:34:55;101541.56;;;20.02;45.90
75420;BME280;63998;52.488;13.428;2023-07-08T02:37:20;101546.09;;;19.97;46.00
75420;BME280;63998;52.488;13.428;2023-07-08T02:39:45;101544.50;;;19.90;45.92
75420;BME280;63998;52.488;13.428;2023-07-08T02:42:11;101548.13;;;19.86;46.22
75420;BME280;63998;52.488;13.428;2023-07-08T02:44:36;101545.38;;;19.90;46.09
75420;BME280;63998;52.488;13.428;2023-07-08T02:47:01;101541.09;;;19.85;46.36
75420;BME280;63998;52.488;13.428;2023-07-08T02:49:27;101541.16;;;19.82;46.27
75420;BME280;63998;52.488;13.428;2023-07-08T02:51:53;101532.38;;;19.81;46.25
75420;BME280;63998;52.488;13.428;2023-07-08T02:54:18;101548.25;;;19.80;46.38
75420;BME280;63998;52.488;13.428;2023-07-08T02:56:43;101542.09;;;19.79;46.42
75420;BME280;63998;52.488;13.428;2023-07-08T02:59:09;101548.50;;;19.69;46.64
75420;BME280;63998;52.488;13.428;2023-07-08T03:01:34;101544.94;;;19.71;46.60
75420;BME280;63998;52.488;13.428;2023-07-08T03:04:07;101544.94;;;19.71;46.69
75420;BME280;63998;52.488;13.428;2023-07-08T03:06:38;101537.00;;;19.71;46.71
75420;BME280;63998;52.488;13.428;2023-07-08T03:09:03;101541.44;;;19.69;46.76
75420;BME280;63998;52.488;13.428;2023-07-08T03:11:28;101533.56;;;19.68;46.47
75420;BME280;63998;52.488;13.428;2023-07-08T03:13:54;101537.00;;;19.71;46.65
75420;BME280;63998;52.488;13.428;2023-07-08T03:16:19;101530.84;;;19.72;46.53
75420;BME280;63998;52.488;13.428;2023-07-08T03:18:44;101538.78;;;19.71;46.71
75420;BME280;63998;52.488;13.428;2023-07-08T03:21:15;101532.72;;;19.67;46.79
75420;BME280;63998;52.488;13.428;2023-07-08T03:23:41;101529.25;;;19.65;46.81
75420;BME280;63998;52.488;13.428;2023-07-08T03:26:07;101530.25;;;19.60;46.90
75420;BME280;63998;52.488;13.428;2023-07-08T03:28:32;101530.25;;;19.60;46.88
75420;BME280;63998;52.488;13.428;2023-07-08T03:30:58;101528.56;;;19.57;47.11
75420;BME280;63998;52.488;13.428;2023-07-08T03:33:23;101525.94;;;19.56;47.19
75420;BME280;63998;52.488;13.428;2023-07-08T03:35:49;101532.91;;;19.58;47.01
75420;BME280;63998;52.488;13.428;2023-07-08T03:38:15;101529.31;;;19.62;47.07
75420;BME280;63998;52.488;13.428;2023-07-08T03:40:40;101525.84;;;19.60;47.29
75420;BME280;63998;52.488;13.428;2023-07-08T03:43:05;101528.47;;;19.62;47.01
75420;BME280;63998;52.488;13.428;2023-07-08T03:45:31;101530.09;;;19.66;47.09
75420;BME280;63998;52.488;13.428;2023-07-08T03:47:56;101523.91;;;19.68;46.96
75420;BME280;63998;52.488;13.428;2023-07-08T03:50:24;101529.06;;;19.73;46.92
75420;BME280;63998;52.488;13.428;2023-07-08T03:52:52;101530.75;;;19.77;46.88
75420;BME280;63998;52.488;13.428;2023-07-08T03:55:18;101534.16;;;19.81;47.19
75420;BME280;63998;52.488;13.428;2023-07-08T03:57:44;101530.50;;;19.88;46.74
75420;BME280;63998;52.488;13.428;2023-07-08T04:00:10;101529.50;;;19.92;47.05
75420;BME280;63998;52.488;13.428;2023-07-08T04:02:40;101530.25;;;19.97;46.98
75420;BME280;63998;52.488;13.428;2023-07-08T04:05:06;101532.81;;;20.01;46.83
75420;BME280;63998;52.488;13.428;2023-07-08T04:07:34;101533.50;;;20.08;46.87
75420;BME280;63998;52.488;13.428;2023-07-08T04:10:00;101536.00;;;20.14;46.73
75420;BME280;63998;52.488;13.428;2023-07-08T04:12:25;101539.44;;;20.16;46.88
75420;BME280;63998;52.488;13.428;2023-07-08T04:14:50;101540.22;;;20.21;46.85
75420;BME280;63998;52.488;13.428;2023-07-08T04:17:17;101531.31;;;20.25;46.71
75420;BME280;63998;52.488;13.428;2023-07-08T04:19:43;101537.38;;;20.29;46.55
75420;BME280;63998;52.488;13.428;2023-07-08T04:22:09;101532.00;;;20.32;46.74
75420;BME280;63998;52.488;13.428;2023-07-08T04:24:35;101534.59;;;20.36;46.45
75420;BME280;63998;52.488;13.428;2023-07-08T04:27:01;101538.06;;;20.38;46.34
75420;BME280;63998;52.488;13.428;2023-07-08T04:29:26;101533.53;;;20.42;46.00
75420;BME280;63998;52.488;13.428;2023-07-08T04:31:52;101536.06;;;20.47;46.16
75420;BME280;63998;52.488;13.428;2023-07-08T04:34:17;101542.22;;;20.47;46.10
75420;BME280;63998;52.488;13.428;2023-07-08T04:36:43;101529.06;;;20.46;46.18
75420;BME280;63998;52.488;13.428;2023-07-08T04:39:10;101537.00;;;20.44;46.29
75420;BME280;63998;52.488;13.428;2023-07-08T04:41:36;101536.00;;;20.50;45.84
75420;BME280;63998;52.488;13.428;2023-07-08T04:44:12;101536.72;;;20.55;45.95
75420;BME280;63998;52.488;13.428;2023-07-08T04:49:05;101535.75;;;20.59;45.85
75420;BME280;63998;52.488;13.428;2023-07-08T04:51:31;101544.41;;;20.64;45.67
75420;BME280;63998;52.488;13.428;2023-07-08T04:53:56;101537.22;;;20.69;45.49
75420;BME280;63998;52.488;13.428;2023-07-08T04:56:22;101533.53;;;20.76;45.59
75420;BME280;63998;52.488;13.428;2023-07-08T04:58:48;101535.06;;;20.83;45.29
75420;BME280;63998;52.488;13.428;2023-07-08T05:01:14;101539.34;;;20.89;45.34
75420;BME280;63998;52.488;13.428;2023-07-08T05:03:39;101534.72;;;20.95;45.04
75420;BME280;63998;52.488;13.428;2023-07-08T05:06:05;101542.44;;;21.03;44.84
75420;BME280;63998;52.488;13.428;2023-07-08T05:08:30;101542.16;;;21.13;44.64
75420;BME280;63998;52.488;13.428;2023-07-08T05:10:55;101538.47;;;21.19;44.66
75420;BME280;63998;52.488;13.428;2023-07-08T05:13:21;101536.72;;;21.18;44.34
75420;BME280;63998;52.488;13.428;2023-07-08T05:15:48;101541.13;;;21.19;44.48
75420;BME280;63998;52.488;13.428;2023-07-08T05:18:13;101546.28;;;21.24;44.31
75420;BME280;63998;52.488;13.428;2023-07-08T05:20:38;101541.63;;;21.32;44.22
75420;BME280;63998;52.488;13.428;2023-07-08T05:23:04;101538.69;;;21.41;44.36
75420;BME280;63998;52.488;13.428;2023-07-08T05:25:31;101542.00;;;21.49;44.29
75420;BME280;63998;52.488;13.428;2023-07-08T05:27:57;101543.63;;;21.53;44.11
75420;BME280;63998;52.488;13.428;2023-07-08T05:30:23;101541.63;;;21.61;44.09
75420;BME280;63998;52.488;13.428;2023-07-08T05:32:48;101554.72;;;21.64;43.78
75420;BME280;63998;52.488;13.428;2023-07-08T05:35:13;101548.44;;;21.68;43.59
75420;BME280;63998;52.488;13.428;2023-07-08T05:37:39;101547.00;;;21.58;43.54
75420;BME280;63998;52.488;13.428;2023-07-08T05:40:06;101546.69;;;21.67;43.39
75420;BME280;63998;52.488;13.428;2023-07-08T05:42:32;101538.44;;;21.78;43.58
75420;BME280;63998;52.488;13.428;2023-07-08T05:44:57;101534.47;;;21.91;43.53
75420;BME280;63998;52.488;13.428;2023-07-08T05:47:22;101540.38;;;22.01;43.21
75420;BME280;63998;52.488;13.428;2023-07-08T05:49:48;101547.28;;;22.05;43.27
75420;BME280;63998;52.488;13.428;2023-07-08T05:52:13;101538.13;;;22.15;43.25
75420;BME280;63998;52.488;13.428;2023-07-08T05:54:40;101546.72;;;22.23;42.93
75420;BME280;63998;52.488;13.428;2023-07-08T05:57:07;101550.88;;;22.30;42.89
75420;BME280;63998;52.488;13.428;2023-07-08T05:59:34;101548.22;;;22.30;42.74
75420;BME280;63998;52.488;13.428;2023-07-08T06:01:59;101553.31;;;22.36;42.67
75420;BME280;63998;52.488;13.428;2023-07-08T06:04:26;101559.22;;;22.44;42.48
75420;BME280;63998;52.488;13.428;2023-07-08T06:06:51;101554.50;;;22.52;42.74
75420;BME280;63998;52.488;13.428;2023-07-08T06:09:16;101558.69;;;22.60;42.37
75420;BME280;63998;52.488;13.428;2023-07-08T06:11:42;101568.13;;;22.67;42.30
75420;BME280;63998;52.488;13.428;2023-07-08T06:14:07;101566.91;;;22.77;42.19
75420;BME280;63998;52.488;13.428;2023-07-08T06:16:33;101562.25;;;22.85;42.05
75420;BME280;63998;52.488;13.428;2023-07-08T06:18:59;101561.31;;;22.86;42.13
75420;BME280;63998;52.488;13.428;2023-07-08T06:21:25;101565.47;;;22.93;41.71
75420;BME280;63998;52.488;13.428;2023-07-08T06:23:50;101564.53;;;22.94;41.45
75420;BME280;63998;52.488;13.428;2023-07-08T06:26:15;101568.81;;;22.98;41.60
75420;BME280;63998;52.488;13.428;2023-07-08T06:28:41;101568.59;;;23.04;41.76
75420;BME280;63998;52.488;13.428;2023-07-08T06:31:06;101573.69;;;23.10;41.62
75420;BME280;63998;52.488;13.428;2023-07-08T06:33:31;101575.28;;;23.14;41.60
75420;BME280;63998;52.488;13.428;2023-07-08T06:35:57;101570.63;;;23.21;41.31
75420;BME280;63998;52.488;13.428;2023-07-08T06:38:22;101571.19;;;23.29;41.33
75420;BME280;63998;52.488;13.428;2023-07-08T06:40:48;101563.75;;;23.39;41.21
75420;BME280;63998;52.488;13.428;2023-07-08T06:43:13;101551.19;;;23.44;41.12
75420;BME280;63998;52.488;13.428;2023-07-08T06:45:40;101552.00;;;23.46;40.92
75420;BME280;63998;52.488;13.428;2023-07-08T06:48:06;101555.34;;;23.51;40.69
75420;BME280;63998;52.488;13.428;2023-07-08T06:50:31;101554.09;;;23.61;40.70
75420;BME280;63998;52.488;13.428;2023-07-08T06:52:57;101555.47;;;23.71;40.55
75420;BME280;63998;52.488;13.428;2023-07-08T06:55:23;101558.66;;;23.79;40.36
75420;BME280;63998;52.488;13.428;2023-07-08T06:57:48;101554.38;;;23.75;39.78
75420;BME280;63998;52.488;13.428;2023-07-08T07:00:14;101545.50;;;23.76;39.94
75420;BME280;63998;52.488;13.428;2023-07-08T07:02:39;101552.53;;;23.77;39.76
75420;BME280;63998;52.488;13.428;2023-07-08T07:05:05;101551.41;;;23.84;39.87
75420;BME280;63998;52.488;13.428;2023-07-08T07:07:30;101548.47;;;23.90;39.81
75420;BME280;63998;52.488;13.428;2023-07-08T07:09:56;101553.28;;;24.03;39.99
75420;BME280;63998;52.488;13.428;2023-07-08T07:12:23;101560.88;;;24.12;39.95
75420;BME280;63998;52.488;13.428;2023-07-08T07:14:49;101560.38;;;24.24;39.97
75420;BME280;63998;52.488;13.428;2023-07-08T07:17:18;101555.59;;;24.33;39.92
75420;BME280;63998;52.488;13.428;2023-07-08T07:19:43;101558.75;;;24.42;39.57
75420;BME280;63998;52.488;13.428;2023-07-08T07:22:08;101556.97;;;24.42;39.36
75420;BME280;63998;52.488;13.428;2023-07-08T07:24:34;101556.84;;;24.45;39.24
75420;BME280;63998;52.488;13.428;2023-07-08T07:26:59;101555.53;;;24.55;39.23
75420;BME280;63998;52.488;13.428;2023-07-08T07:29:25;101554.13;;;24.67;39.08
75420;BME280;63998;52.488;13.428;2023-07-08T07:31:51;101551.13;;;24.75;39.00
75420;BME280;63998;52.488;13.428;2023-07-08T07:34:16;101556.59;;;24.72;38.59
75420;BME280;63998;52.488;13.428;2023-07-08T07:36:42;101545.69;;;24.78;38.90
75420;BME280;63998;52.488;13.428;2023-07-08T07:39:07;101546.28;;;24.84;38.85
75420;BME280;63998;52.488;13.428;2023-07-08T07:41:33;101548.72;;;24.89;38.63
75420;BME280;63998;52.488;13.428;2023-07-08T07:43:58;101545.03;;;24.93;38.72
75420;BME280;63998;52.488;13.428;2023-07-08T07:46:24;101551.53;;;25.06;38.43
75420;BME280;63998;52.488;13.428;2023-07-08T07:48:49;101549.38;;;25.14;38.71
75420;BME280;63998;52.488;13.428;2023-07-08T07:51:14;101549.88;;;25.22;38.25
75420;BME280;63998;52.488;13.428;2023-07-08T07:53:40;101544.47;;;25.24;38.25
75420;BME280;63998;52.488;13.428;2023-07-08T07:56:06;101550.34;;;25.32;38.25
75420;BME280;63998;52.488;13.428;2023-07-08T07:58:32;101541.84;;;25.42;38.13
75420;BME280;63998;52.488;13.428;2023-07-08T08:00:57;101548.19;;;25.59;38.00
75420;BME280;63998;52.488;13.428;2023-07-08T08:03:23;101542.44;;;25.68;37.66
75420;BME280;63998;52.488;13.428;2023-07-08T08:05:49;101542.78;;;25.79;37.42
75420;BME280;63998;52.488;13.428;2023-07-08T08:08:15;101548.59;;;25.87;37.20
75420;BME280;63998;52.488;13.428;2023-07-08T08:10:42;101546.19;;;26.00;37.21
75420;BME280;63998;52.488;13.428;2023-07-08T08:13:08;101542.22;;;26.08;36.91
75420;BME280;63998;52.488;13.428;2023-07-08T08:15:34;101551.47;;;26.19;36.59
75420;BME280;63998;52.488;13.428;2023-07-08T08:17:59;101551.28;;;26.22;36.47
75420;BME280;63998;52.488;13.428;2023-07-08T08:20:25;101557.63;;;26.38;36.44
75420;BME280;63998;52.488;13.428;2023-07-08T08:22:51;101550.06;;;26.46;35.77
75420;BME280;63998;52.488;13.428;2023-07-08T08:25:19;101547.75;;;26.57;35.46
75420;BME280;63998;52.488;13.428;2023-07-08T08:27:44;101549.13;;;26.64;35.56
75420;BME280;63998;52.488;13.428;2023-07-08T08:30:11;101546.94;;;26.72;34.96
75420;BME280;63998;52.488;13.428;2023-07-08T08:32:36;101556.94;;;26.84;35.04
75420;BME280;63998;52.488;13.428;2023-07-08T08:35:02;101552.13;;;26.93;34.77
75420;BME280;63998;52.488;13.428;2023-07-08T08:37:27;101552.41;;;27.04;34.64
75420;BME280;63998;52.488;13.428;2023-07-08T08:39:53;101550.16;;;27.12;34.38
75420;BME280;63998;52.488;13.428;2023-07-08T08:44:49;101559.28;;;27.08;32.71
75420;BME280;63998;52.488;13.428;2023-07-08T08:49:56;101553.38;;;27.34;33.29
75420;BME280;63998;52.488;13.428;2023-07-08T08:52:22;101561.50;;;27.48;33.40
75420;BME280;63998;52.488;13.428;2023-07-08T08:54:47;101550.00;;;27.64;33.34
75420;BME280;63998;52.488;13.428;2023-07-08T08:59:57;101546.38;;;27.80;32.37
75420;BME280;63998;52.488;13.428;2023-07-08T09:04:52;101550.94;;;27.94;31.23
75420;BME280;63998;52.488;13.428;2023-07-08T09:07:19;101551.44;;;28.01;32.01
75420;BME280;63998;52.488;13.428;2023-07-08T09:12:25;101547.28;;;28.27;32.64
75420;BME280;63998;52.488;13.428;2023-07-08T09:14:52;101540.13;;;28.27;31.71
75420;BME280;63998;52.488;13.428;2023-07-08T09:17:31;101545.16;;;28.32;31.66
75420;BME280;63998;52.488;13.428;2023-07-08T09:20:06;101538.13;;;28.45;32.13
75420;BME280;63998;52.488;13.428;2023-07-08T09:27:40;101543.44;;;28.75;31.55
75420;BME280;63998;52.488;13.428;2023-07-08T09:30:10;101536.69;;;28.83;29.43
75420;BME280;63998;52.488;13.428;2023-07-08T09:32:38;101534.22;;;28.94;29.48
75420;BME280;63998;52.488;13.428;2023-07-08T09:35:05;101531.94;;;29.03;28.52
75420;BME280;63998;52.488;13.428;2023-07-08T09:37:34;101531.00;;;29.04;28.80
75420;BME280;63998;52.488;13.428;2023-07-08T09:40:04;101529.81;;;29.08;27.32
75420;BME280;63998;52.488;13.428;2023-07-08T09:42:32;101527.53;;;29.16;28.12
75420;BME280;63998;52.488;13.428;2023-07-08T09:45:00;101528.47;;;29.29;27.81
75420;BME280;63998;52.488;13.428;2023-07-08T09:47:36;101529.13;;;29.33;26.17
75420;BME280;63998;52.488;13.428;2023-07-08T09:50:04;101528.47;;;29.43;26.61
75420;BME280;63998;52.488;13.428;2023-07-08T09:52:41;101529.03;;;29.48;26.29
75420;BME280;63998;52.488;13.428;2023-07-08T09:55:11;101526.72;;;29.56;26.73
75420;BME280;63998;52.488;13.428;2023-07-08T09:57:36;101526.13;;;29.65;26.91
75420;BME280;63998;52.488;13.428;2023-07-08T10:00:07;101525.34;;;29.78;26.49
75420;BME280;63998;52.488;13.428;2023-07-08T10:02:50;101528.00;;;29.78;25.59
75420;BME280;63998;52.488;13.428;2023-07-08T10:05:28;101522.81;;;29.89;25.47
75420;BME280;63998;52.488;13.428;2023-07-08T10:07:56;101517.00;;;29.95;26.08
75420;BME280;63998;52.488;13.428;2023-07-08T10:10:29;101530.81;;;30.03;26.90
75420;BME280;63998;52.488;13.428;2023-07-08T10:13:00;101518.59;;;30.12;26.54
75420;BME280;63998;52.488;13.428;2023-07-08T10:15:33;101519.59;;;30.23;26.79
75420;BME280;63998;52.488;13.428;2023-07-08T10:18:01;101525.09;;;30.34;26.62
75420;BME280;63998;52.488;13.428;2023-07-08T10:20:34;101510.06;;;30.45;25.54
75420;BME280;63998;52.488;13.428;2023-07-08T10:23:16;101511.72;;;30.60;25.25
75420;BME280;63998;52.488;13.428;2023-07-08T10:26:10;101518.50;;;30.65;23.97
75420;BME280;63998;52.488;13.428;2023-07-08T10:28:42;101513.75;;;30.69;23.87
75420;BME280;63998;52.488;13.428;2023-07-08T10:56:03;101499.81;;;31.51;22.98
75420;BME280;63998;52.488;13.428;2023-07-08T10:58:52;101498.28;;;31.84;22.06
75420;BME280;63998;52.488;13.428;2023-07-08T11:01:34;101496.78;;;31.80;21.07
75420;BME280;63998;52.488;13.428;2023-07-08T11:10:17;101485.75;;;31.95;22.24
75420;BME280;63998;52.488;13.428;2023-07-08T11:12:47;101489.19;;;32.32;22.50
75420;BME280;63998;52.488;13.428;2023-07-08T11:15:19;101480.91;;;32.69;22.19
75420;BME280;63998;52.488;13.428;2023-07-08T11:17:56;101482.91;;;32.89;21.24
75420;BME280;63998;52.488;13.428;2023-07-08T11:20:36;101483.38;;;33.05;20.80
75420;BME280;63998;52.488;13.428;2023-07-08T11:25:47;101477.75;;;33.08;20.25
75420;BME280;63998;52.488;13.428;2023-07-08T11:28:17;101478.75;;;32.96;19.95
75420;BME280;63998;52.488;13.428;2023-07-08T11:30:46;101477.50;;;33.23;20.90
75420;BME280;63998;52.488;13.428;2023-07-08T11:33:13;101468.28;;;33.47;19.93
75420;BME280;63998;52.488;13.428;2023-07-08T11:35:46;101471.28;;;33.65;20.28
75420;BME280;63998;52.488;13.428;2023-07-08T11:38:16;101465.38;;;34.03;19.81
75420;BME280;63998;52.488;13.428;2023-07-08T11:40:51;101465.19;;;34.16;19.80
75420;BME280;63998;52.488;13.428;2023-07-08T11:43:18;101466.25;;;34.45;19.27
75420;BME280;63998;52.488;13.428;2023-07-08T11:45:45;101462.38;;;34.69;19.31
75420;BME280;63998;52.488;13.428;2023-07-08T11:48:17;101456.97;;;34.99;19.55
75420;BME280;63998;52.488;13.428;2023-07-08T11:50:45;101465.78;;;35.32;18.37
75420;BME280;63998;52.488;13.428;2023-07-08T11:53:34;101462.91;;;35.23;18.29
75420;BME280;63998;52.488;13.428;2023-07-08T12:03:51;101446.72;;;34.63;17.33
75420;BME280;63998;52.488;13.428;2023-07-08T12:08:56;101444.75;;;34.65;17.60
75420;BME280;63998;52.488;13.428;2023-07-08T12:11:31;101437.06;;;34.90;17.38
75420;BME280;63998;52.488;13.428;2023-07-08T12:14:04;101436.50;;;34.66;17.55
75420;BME280;63998;52.488;13.428;2023-07-08T12:16:32;101437.09;;;34.39;18.19
75420;BME280;63998;52.488;13.428;2023-07-08T12:19:01;101446.84;;;34.82;17.64
75420;BME280;63998;52.488;13.428;2023-07-08T12:21:30;101451.28;;;35.33;17.73
75420;BME280;63998;52.488;13.428;2023-07-08T12:24:06;101434.81;;;35.84;17.55
75420;BME280;63998;52.488;13.428;2023-07-08T12:26:35;101433.16;;;36.39;17.42
75420;BME280;63998;52.488;13.428;2023-07-08T12:29:00;101429.41;;;36.87;17.68
75420;BME280;63998;52.488;13.428;2023-07-08T12:31:26;101430.84;;;37.18;17.03
75420;BME280;63998;52.488;13.428;2023-07-08T12:33:51;101429.38;;;37.42;16.52
75420;BME280;63998;52.488;13.428;2023-07-08T12:36:28;101428.50;;;37.23;16.42
75420;BME280;63998;52.488;13.428;2023-07-08T12:38:55;101424.44;;;37.10;16.60
75420;BME280;63998;52.488;13.428;2023-07-08T12:41:28;101430.00;;;37.35;16.56
75420;BME280;63998;52.488;13.428;2023-07-08T12:43:54;101411.66;;;37.02;16.24
75420;BME280;63998;52.488;13.428;2023-07-08T12:46:21;101416.34;;;37.27;16.51
75420;BME280;63998;52.488;13.428;2023-07-08T12:48:47;101415.91;;;37.50;16.38
75420;BME280;63998;52.488;13.428;2023-07-08T12:51:16;101416.22;;;37.82;16.08
75420;BME280;63998;52.488;13.428;2023-07-08T12:53:42;101414.72;;;37.88;15.86
75420;BME280;63998;52.488;13.428;2023-07-08T12:56:08;101406.13;;;37.92;16.05
75420;BME280;63998;52.488;13.428;2023-07-08T12:58:39;101409.88;;;37.99;14.98
75420;BME280;63998;52.488;13.428;2023-07-08T13:01:06;101402.13;;;38.04;15.41
75420;BME280;63998;52.488;13.428;2023-07-08T13:03:37;101417.94;;;37.83;14.95
75420;BME280;63998;52.488;13.428;2023-07-08T13:06:04;101412.06;;;37.96;14.96
75420;BME280;63998;52.488;13.428;2023-07-08T13:08:34;101412.69;;;38.07;14.55
75420;BME280;63998;52.488;13.428;2023-07-08T13:11:01;101418.22;;;38.24;14.95
75420;BME280;63998;52.488;13.428;2023-07-08T13:13:32;101410.78;;;38.26;15.06
75420;BME280;63998;52.488;13.428;2023-07-08T13:15:59;101414.75;;;38.65;15.26
75420;BME280;63998;52.488;13.428;2023-07-08T13:18:32;101404.38;;;38.61;14.80
75420;BME280;63998;52.488;13.428;2023-07-08T13:20:58;101402.81;;;38.58;14.53
75420;BME280;63998;52.488;13.428;2023-07-08T13:23:24;101401.50;;;38.62;14.41
75420;BME280;63998;52.488;13.428;2023-07-08T13:25:52;101389.72;;;38.02;14.07
75420;BME280;63998;52.488;13.428;2023-07-08T13:28:22;101389.31;;;37.35;15.02
75420;BME280;63998;52.488;13.428;2023-07-08T13:31:00;101392.16;;;36.61;15.66
75420;BME280;63998;52.488;13.428;2023-07-08T13:33:32;101391.47;;;36.96;15.55
75420;BME280;63998;52.488;13.428;2023-07-08T13:36:01;101395.81;;;35.57;15.91
75420;BME280;63998;52.488;13.428;2023-07-08T13:38:34;101389.22;;;35.98;15.93
75420;BME280;63998;52.488;13.428;2023-07-08T13:41:05;101395.47;;;36.18;16.19
75420;BME280;63998;52.488;13.428;2023-07-08T13:43:34;101386.16;;;36.40;15.80
75420;BME280;63998;52.488;13.428;2023-07-08T13:46:01;101386.44;;;36.74;15.44
75420;BME280;63998;52.488;13.428;2023-07-08T13:48:34;101383.06;;;37.17;15.09
75420;BME280;63998;52.488;13.428;2023-07-08T13:56:11;101382.06;;;37.97;14.07
75420;BME280;63998;52.488;13.428;2023-07-08T13:58:42;101384.16;;;38.03;14.17